createdAt,value
2019-01-21T00:00:55.186Z,-1.67
2019-01-21T00:01:55.193Z,-1.72
2019-01-21T00:02:55.202Z,-1.69
2019-01-21T00:03:55.205Z,-1.62
2019-01-21T00:04:55.215Z,-1.69
2019-01-21T00:05:55.223Z,-1.72
2019-01-21T00:06:55.229Z,-1.64
2019-01-21T00:07:55.236Z,-1.67
2019-01-21T00:08:55.241Z,-1.64
2019-01-21T00:09:55.250Z,-1.67
2019-01-21T00:10:55.256Z,-1.66
2019-01-21T00:11:55.271Z,-1.66
2019-01-21T00:12:55.286Z,-1.61
2019-01-21T00:13:55.274Z,-1.66
2019-01-21T00:14:55.282Z,-1.66
2019-01-21T00:15:55.290Z,-1.73
2019-01-21T00:16:55.305Z,-1.82
2019-01-21T00:17:55.310Z,-1.80
2019-01-21T00:18:55.343Z,-1.80
2019-01-21T00:19:55.315Z,-1.85
2019-01-21T00:20:55.328Z,-1.80
2019-01-21T00:21:55.348Z,-1.95
2019-01-21T00:22:55.340Z,-1.85
2019-01-21T00:23:55.344Z,-1.88
2019-01-21T00:24:55.353Z,-1.92
2019-01-21T00:25:55.373Z,-1.88
2019-01-21T00:26:55.548Z,-1.87
2019-01-21T00:27:55.376Z,-1.91
2019-01-21T00:28:55.386Z,-1.90
2019-01-21T00:29:55.391Z,-1.91
2019-01-21T00:30:55.399Z,-1.91
2019-01-21T00:31:55.398Z,-1.97
2019-01-21T00:32:55.412Z,-1.92
2019-01-21T00:33:55.413Z,-1.94
2019-01-21T00:34:55.421Z,-1.92
2019-01-21T00:35:55.426Z,-1.95
2019-01-21T00:36:55.434Z,-1.97
2019-01-21T00:37:55.443Z,-2.00
2019-01-21T00:38:55.454Z,-2.06
2019-01-21T00:39:55.467Z,-2.06
2019-01-21T00:40:55.463Z,-2.05
2019-01-21T00:41:55.474Z,-1.98
2019-01-21T00:42:55.473Z,-2.08
2019-01-21T00:43:55.488Z,-2.10
2019-01-21T00:44:55.496Z,-2.13
2019-01-21T00:45:55.499Z,-2.06
2019-01-21T00:46:55.505Z,-2.23
2019-01-21T00:47:55.513Z,-2.18
2019-01-21T00:48:55.518Z,-2.24
2019-01-21T00:49:55.526Z,-2.20
2019-01-21T00:50:55.536Z,-2.29
2019-01-21T00:51:55.534Z,-2.37
2019-01-21T00:52:55.543Z,-2.32
2019-01-21T00:53:55.603Z,-2.32
2019-01-21T00:54:55.563Z,-2.39
2019-01-21T00:55:55.567Z,-2.27
2019-01-21T00:56:55.572Z,-2.39
2019-01-21T00:57:55.629Z,-2.34
2019-01-21T00:58:55.586Z,-2.29
2019-01-21T00:59:55.594Z,-2.34
2019-01-21T01:00:55.596Z,-2.26
2019-01-21T01:01:55.604Z,-2.32
2019-01-21T01:02:55.615Z,-2.26
2019-01-21T01:03:55.616Z,-2.23
2019-01-21T01:04:55.627Z,-2.35
2019-01-21T01:05:55.637Z,-2.24
2019-01-21T01:06:55.641Z,-2.20
2019-01-21T01:07:55.644Z,-2.23
2019-01-21T01:08:55.651Z,-2.23
2019-01-21T01:09:55.661Z,-2.21
2019-01-21T01:10:55.664Z,-2.15
2019-01-21T01:11:55.672Z,-2.18
2019-01-21T01:12:55.679Z,-2.18
2019-01-21T01:13:55.687Z,-2.13
2019-01-21T01:14:55.692Z,-2.15
2019-01-21T01:15:55.700Z,-2.15
2019-01-21T01:16:55.753Z,-2.23
2019-01-21T01:17:55.723Z,-2.27
2019-01-21T01:18:55.726Z,-2.39
2019-01-21T01:19:55.729Z,-2.23
2019-01-21T01:20:55.739Z,-2.30
2019-01-21T01:21:55.745Z,-2.30
2019-01-21T01:22:55.815Z,-2.52
2019-01-21T01:23:55.778Z,-2.43
2019-01-21T01:24:55.765Z,-2.40
2019-01-21T01:25:55.770Z,-2.30
2019-01-21T01:26:55.775Z,-2.37
2019-01-21T01:27:55.780Z,-2.39
2019-01-21T01:28:55.785Z,-2.34
2019-01-21T01:29:55.803Z,-2.32
2019-01-21T01:30:55.800Z,-2.34
2019-01-21T01:31:55.820Z,-2.27
2019-01-21T01:32:55.812Z,-2.34
2019-01-21T01:33:55.820Z,-2.26
2019-01-21T01:34:55.836Z,-2.37
2019-01-21T01:35:55.834Z,-2.35
2019-01-21T01:36:55.839Z,-2.34
2019-01-21T01:37:55.851Z,-2.35
2019-01-21T01:38:55.856Z,-2.39
2019-01-21T01:39:55.861Z,-2.53
2019-01-21T01:40:55.875Z,-2.34
2019-01-21T01:41:55.873Z,-2.48
2019-01-21T01:42:55.879Z,-2.43
2019-01-21T01:43:55.885Z,-2.49
2019-01-21T01:44:55.896Z,-2.45
2019-01-21T01:45:55.901Z,-2.49
2019-01-21T01:46:55.907Z,-2.45
2019-01-21T01:47:55.913Z,-2.53
2019-01-21T01:48:55.927Z,-2.55
2019-01-21T01:49:55.953Z,-2.53
2019-01-21T01:50:55.934Z,-2.56
2019-01-21T01:51:55.957Z,-2.55
2019-01-21T01:52:55.969Z,-2.60
2019-01-21T01:53:55.952Z,-2.56
2019-01-21T01:54:56.016Z,-2.64
2019-01-21T01:55:55.975Z,-2.55
2019-01-21T01:56:55.975Z,-2.71
2019-01-21T01:57:55.991Z,-2.68
2019-01-21T01:58:56.020Z,-2.68
2019-01-21T01:59:56.003Z,-2.70
2019-01-21T02:00:56.130Z,-2.67
2019-01-21T02:01:56.012Z,-2.70
2019-01-21T02:02:56.015Z,-2.78
2019-01-21T02:03:56.019Z,-2.67
2019-01-21T02:04:56.026Z,-2.68
2019-01-21T02:05:56.036Z,-2.81
2019-01-21T02:06:56.041Z,-2.67
2019-01-21T02:07:56.051Z,-2.70
2019-01-21T02:08:56.062Z,-2.71
2019-01-21T02:09:56.074Z,-2.70
2019-01-21T02:10:56.069Z,-2.67
2019-01-21T02:11:56.072Z,-2.70
2019-01-21T02:12:56.079Z,-2.77
2019-01-21T02:13:56.102Z,-2.67
2019-01-21T02:14:56.102Z,-2.77
2019-01-21T02:15:56.101Z,-2.66
2019-01-21T02:16:56.112Z,-2.67
2019-01-21T02:17:56.114Z,-2.79
2019-01-21T02:18:56.124Z,-2.70
2019-01-21T02:19:56.125Z,-2.77
2019-01-21T02:20:56.133Z,-2.71
2019-01-21T02:21:56.143Z,-2.70
2019-01-21T02:22:56.146Z,-2.68
2019-01-21T02:23:56.152Z,-2.67
2019-01-21T02:24:56.157Z,-2.64
2019-01-21T02:25:56.165Z,-2.77
2019-01-21T02:26:56.173Z,-2.73
2019-01-21T02:27:56.179Z,-2.78
2019-01-21T02:28:56.182Z,-2.84
2019-01-21T02:29:56.199Z,-2.94
2019-01-21T02:30:56.211Z,-2.91
2019-01-21T02:31:56.210Z,-2.86
2019-01-21T02:32:56.235Z,-2.94
2019-01-21T02:33:56.235Z,-2.91
2019-01-21T02:34:56.229Z,-2.92
2019-01-21T02:35:56.248Z,-2.92
2019-01-21T02:36:56.236Z,-2.97
2019-01-21T02:37:56.245Z,-2.99
2019-01-21T02:38:56.269Z,-2.91
2019-01-21T02:39:56.256Z,-2.89
2019-01-21T02:40:56.264Z,-2.84
2019-01-21T02:41:56.383Z,-2.85
2019-01-21T02:42:56.275Z,-2.91
2019-01-21T02:43:56.287Z,-2.82
2019-01-21T02:44:56.290Z,-2.81
2019-01-21T02:45:56.303Z,-2.79
2019-01-21T02:46:56.301Z,-2.79
2019-01-21T02:48:00.229Z,-2.70
2019-01-21T02:48:56.313Z,-2.73
2019-01-21T02:49:56.333Z,-2.71
2019-01-21T02:50:56.333Z,-2.71
2019-01-21T02:51:56.429Z,-2.77
2019-01-21T02:52:56.341Z,-2.64
2019-01-21T02:53:56.350Z,-2.73
2019-01-21T02:54:56.356Z,-2.66
2019-01-21T02:55:56.361Z,-2.63
2019-01-21T02:56:56.370Z,-2.53
2019-01-21T02:57:56.376Z,-2.61
2019-01-21T02:58:56.391Z,-2.64
2019-01-21T02:59:56.403Z,-2.71
2019-01-21T03:01:56.405Z,-2.67
2019-01-21T03:02:56.412Z,-2.68
2019-01-21T03:03:56.414Z,-2.68
2019-01-21T03:04:56.420Z,-2.70
2019-01-21T03:05:56.431Z,-2.77
2019-01-21T03:06:56.437Z,-2.68
2019-01-21T03:07:56.461Z,-2.73
2019-01-21T03:08:56.452Z,-2.77
2019-01-21T03:09:56.451Z,-2.79
2019-01-21T03:10:56.464Z,-2.78
2019-01-21T03:11:56.475Z,-2.81
2019-01-21T03:12:56.472Z,-2.88
2019-01-21T03:13:56.504Z,-2.81
2019-01-21T03:14:56.485Z,-2.86
2019-01-21T03:15:56.503Z,-2.81
2019-01-21T03:16:56.506Z,-2.88
2019-01-21T03:17:56.509Z,-2.86
2019-01-21T03:18:56.510Z,-2.82
2019-01-21T03:19:56.518Z,-2.84
2019-01-21T03:20:56.525Z,-2.77
2019-01-21T03:21:56.539Z,-2.70
2019-01-21T03:22:56.537Z,-2.66
2019-01-21T03:23:56.542Z,-2.64
2019-01-21T03:24:56.584Z,-2.67
2019-01-21T03:25:56.560Z,-2.73
2019-01-21T03:26:56.569Z,-2.74
2019-01-21T03:27:56.568Z,-2.74
2019-01-21T03:28:56.580Z,-2.78
2019-01-21T03:29:56.580Z,-2.79
2019-01-21T03:30:56.592Z,-2.84
2019-01-21T03:31:56.627Z,-2.88
2019-01-21T03:32:56.603Z,-2.89
2019-01-21T03:33:56.616Z,-2.89
2019-01-21T03:34:56.641Z,-2.85
2019-01-21T03:35:56.625Z,-2.84
2019-01-21T03:36:56.632Z,-2.85
2019-01-21T03:37:56.632Z,-2.79
2019-01-21T03:38:56.641Z,-2.79
2019-01-21T03:39:56.645Z,-2.81
2019-01-21T03:40:56.656Z,-2.85
2019-01-21T03:41:56.699Z,-2.86
2019-01-21T03:42:56.677Z,-2.86
2019-01-21T03:43:56.683Z,-2.81
2019-01-21T03:44:56.687Z,-2.82
2019-01-21T03:45:56.687Z,-2.82
2019-01-21T03:46:56.689Z,-2.73
2019-01-21T03:47:56.697Z,-2.79
2019-01-21T03:48:56.706Z,-2.70
2019-01-21T03:49:56.721Z,-2.74
2019-01-21T03:50:56.721Z,-2.70
2019-01-21T03:51:56.726Z,-2.77
2019-01-21T03:52:56.746Z,-2.78
2019-01-21T03:53:56.746Z,-2.78
2019-01-21T03:54:56.751Z,-2.85
2019-01-21T03:55:56.748Z,-2.92
2019-01-21T03:56:56.760Z,-2.94
2019-01-21T03:57:56.767Z,-2.97
2019-01-21T03:58:56.881Z,-2.96
2019-01-21T03:59:56.780Z,-2.89
2019-01-21T04:00:56.811Z,-2.99
2019-01-21T04:01:56.789Z,-2.88
2019-01-21T04:02:56.803Z,-2.92
2019-01-21T04:03:56.820Z,-2.89
2019-01-21T04:04:56.808Z,-2.96
2019-01-21T04:05:56.824Z,-2.96
2019-01-21T04:06:56.826Z,-2.88
2019-01-21T04:07:56.891Z,-2.96
2019-01-21T04:08:56.840Z,-2.89
2019-01-21T04:09:56.838Z,-2.85
2019-01-21T04:10:56.848Z,-2.81
2019-01-21T04:11:56.854Z,-2.78
2019-01-21T04:12:56.867Z,-2.86
2019-01-21T04:13:56.864Z,-2.86
2019-01-21T04:14:56.871Z,-2.89
2019-01-21T04:15:56.886Z,-2.88
2019-01-21T04:16:56.886Z,-2.91
2019-01-21T04:17:56.889Z,-3.00
2019-01-21T04:18:56.898Z,-2.99
2019-01-21T04:19:56.908Z,-3.02
2019-01-21T04:20:56.907Z,-3.00
2019-01-21T04:21:56.918Z,-3.06
2019-01-21T04:22:56.923Z,-3.15
2019-01-21T04:23:56.928Z,-3.03
2019-01-21T04:24:56.937Z,-3.00
2019-01-21T04:25:56.947Z,-3.02
2019-01-21T04:26:56.948Z,-2.91
2019-01-21T04:27:56.976Z,-2.96
2019-01-21T04:28:57.099Z,-3.02
2019-01-21T04:29:56.966Z,-2.92
2019-01-21T04:30:56.979Z,-2.91
2019-01-21T04:31:56.977Z,-3.03
2019-01-21T04:32:57.030Z,-2.99
2019-01-21T04:33:56.991Z,-3.07
2019-01-21T04:34:57.004Z,-3.06
2019-01-21T04:35:57.055Z,-3.09
2019-01-21T04:36:57.009Z,-3.14
2019-01-21T04:37:57.016Z,-3.10
2019-01-21T04:38:57.027Z,-3.09
2019-01-21T04:39:57.028Z,-3.06
2019-01-21T04:40:57.033Z,-3.12
2019-01-21T04:41:57.039Z,-3.02
2019-01-21T04:42:57.045Z,-3.07
2019-01-21T04:43:57.054Z,-3.07
2019-01-21T04:44:57.073Z,-3.10
2019-01-21T04:45:57.084Z,-3.10
2019-01-21T04:46:57.072Z,-3.06
2019-01-21T04:47:57.077Z,-3.15
2019-01-21T04:48:57.085Z,-3.15
2019-01-21T04:49:57.091Z,-3.20
2019-01-21T04:50:57.102Z,-3.27
2019-01-21T04:51:57.107Z,-3.25
2019-01-21T04:52:57.106Z,-3.30
2019-01-21T04:53:57.174Z,-3.36
2019-01-21T04:54:57.126Z,-3.41
2019-01-21T04:55:57.131Z,-3.31
2019-01-21T04:56:57.140Z,-3.38
2019-01-21T04:57:57.150Z,-3.42
2019-01-21T04:58:57.150Z,-3.48
2019-01-21T04:59:57.152Z,-3.42
2019-01-21T05:00:57.182Z,-3.42
2019-01-21T05:01:57.187Z,-3.43
2019-01-21T05:02:57.187Z,-3.46
2019-01-21T05:03:57.179Z,-3.39
2019-01-21T05:04:57.204Z,-3.43
2019-01-21T05:05:57.187Z,-3.45
2019-01-21T05:06:57.198Z,-3.53
2019-01-21T05:07:57.200Z,-3.54
2019-01-21T05:08:57.210Z,-3.43
2019-01-21T05:09:57.248Z,-3.45
2019-01-21T05:10:57.229Z,-3.43
2019-01-21T05:11:57.230Z,-3.36
2019-01-21T05:12:57.232Z,-3.43
2019-01-21T05:13:57.235Z,-3.43
2019-01-21T05:14:57.238Z,-3.43
2019-01-21T05:15:57.252Z,-3.43
2019-01-21T05:16:57.267Z,-3.36
2019-01-21T05:17:57.257Z,-3.43
2019-01-21T05:18:57.261Z,-3.39
2019-01-21T05:19:57.263Z,-3.41
2019-01-21T05:20:57.267Z,-3.39
2019-01-21T05:21:57.279Z,-3.49
2019-01-21T05:22:57.284Z,-3.52
2019-01-21T05:23:57.287Z,-3.62
2019-01-21T05:24:57.297Z,-3.57
2019-01-21T05:25:57.302Z,-3.63
2019-01-21T05:26:57.307Z,-3.64
2019-01-21T05:27:57.313Z,-3.56
2019-01-21T05:28:57.320Z,-3.62
2019-01-21T05:29:57.322Z,-3.62
2019-01-21T05:30:57.336Z,-3.52
2019-01-21T05:31:57.334Z,-3.48
2019-01-21T05:32:57.344Z,-3.43
2019-01-21T05:33:57.355Z,-3.49
2019-01-21T05:34:57.356Z,-3.39
2019-01-21T05:35:57.362Z,-3.39
2019-01-21T05:36:57.363Z,-3.41
2019-01-21T05:37:57.371Z,-3.43
2019-01-21T05:38:57.379Z,-3.28
2019-01-21T05:39:57.387Z,-3.31
2019-01-21T05:40:57.422Z,-3.43
2019-01-21T05:41:57.397Z,-3.42
2019-01-21T05:42:57.403Z,-3.53
2019-01-21T05:43:57.412Z,-3.49
2019-01-21T05:44:57.433Z,-3.60
2019-01-21T05:45:57.419Z,-3.53
2019-01-21T05:46:57.427Z,-3.56
2019-01-21T05:47:57.437Z,-3.54
2019-01-21T05:48:57.442Z,-3.64
2019-01-21T05:49:57.442Z,-3.63
2019-01-21T05:50:57.448Z,-3.63
2019-01-21T05:51:57.456Z,-3.62
2019-01-21T05:52:57.463Z,-3.59
2019-01-21T05:53:57.466Z,-3.59
2019-01-21T05:54:57.482Z,-3.63
2019-01-21T05:55:57.478Z,-3.57
2019-01-21T05:56:57.497Z,-3.59
2019-01-21T05:57:57.490Z,-3.59
2019-01-21T05:58:57.502Z,-3.62
2019-01-21T05:59:57.513Z,-3.56
2019-01-21T06:00:59.076Z,-3.57
2019-01-21T06:01:57.518Z,-3.56
2019-01-21T06:02:57.525Z,-3.63
2019-01-21T06:03:57.523Z,-3.57
2019-01-21T06:04:57.532Z,-3.57
2019-01-21T06:05:57.545Z,-3.60
2019-01-21T06:06:57.552Z,-3.63
2019-01-21T06:07:57.557Z,-3.64
2019-01-21T06:08:57.555Z,-3.59
2019-01-21T06:09:57.564Z,-3.62
2019-01-21T06:10:57.572Z,-3.71
2019-01-21T06:11:57.580Z,-3.60
2019-01-21T06:12:57.604Z,-3.64
2019-01-21T06:13:57.583Z,-3.78
2019-01-21T06:14:57.587Z,-3.66
2019-01-21T06:15:57.596Z,-3.62
2019-01-21T06:16:57.602Z,-3.59
2019-01-21T06:17:57.608Z,-3.62
2019-01-21T06:18:57.751Z,-3.59
2019-01-21T06:19:57.622Z,-3.54
2019-01-21T06:20:57.626Z,-3.54
2019-01-21T06:21:57.634Z,-3.57
2019-01-21T06:22:57.635Z,-3.53
2019-01-21T06:23:57.644Z,-3.53
2019-01-21T06:24:57.646Z,-3.49
2019-01-21T06:25:58.303Z,-3.52
2019-01-21T06:26:57.662Z,-3.53
2019-01-21T06:27:57.666Z,-3.43
2019-01-21T06:28:57.674Z,-3.41
2019-01-21T06:29:57.675Z,-3.39
2019-01-21T06:30:57.687Z,-3.42
2019-01-21T06:31:57.688Z,-3.36
2019-01-21T06:32:57.694Z,-3.31
2019-01-21T06:33:57.712Z,-3.36
2019-01-21T06:34:57.721Z,-3.42
2019-01-21T06:35:57.723Z,-3.35
2019-01-21T06:36:57.721Z,-3.46
2019-01-21T06:37:57.732Z,-3.41
2019-01-21T06:38:57.738Z,-3.43
2019-01-21T06:39:57.735Z,-3.41
2019-01-21T06:40:57.743Z,-3.39
2019-01-21T06:41:57.746Z,-3.39
2019-01-21T06:42:57.787Z,-3.36
2019-01-21T06:43:57.771Z,-3.42
2019-01-21T06:44:57.765Z,-3.38
2019-01-21T06:45:57.774Z,-3.38
2019-01-21T06:46:57.783Z,-3.45
2019-01-21T06:47:57.791Z,-3.42
2019-01-21T06:49:04.457Z,-3.33
2019-01-21T06:49:57.794Z,-3.31
2019-01-21T06:50:57.800Z,-3.28
2019-01-21T06:51:57.807Z,-3.27
2019-01-21T06:52:57.812Z,-3.25
2019-01-21T06:53:57.824Z,-3.27
2019-01-21T06:54:57.825Z,-3.25
2019-01-21T06:55:57.833Z,-3.31
2019-01-21T06:56:57.836Z,-3.27
2019-01-21T06:57:57.841Z,-3.27
2019-01-21T06:58:57.845Z,-3.25
2019-01-21T06:59:57.852Z,-3.24
2019-01-21T07:00:57.860Z,-3.25
2019-01-21T07:01:57.863Z,-3.25
2019-01-21T07:02:57.873Z,-3.31
2019-01-21T07:03:57.898Z,-3.30
2019-01-21T07:04:57.904Z,-3.25
2019-01-21T07:05:57.894Z,-3.31
2019-01-21T07:06:57.899Z,-3.33
2019-01-21T07:07:57.897Z,-3.15
2019-01-21T07:09:57.917Z,-3.14
2019-01-21T07:10:57.918Z,-3.21
2019-01-21T07:11:57.930Z,-3.28
2019-01-21T07:12:57.936Z,-3.24
2019-01-21T07:13:57.942Z,-3.28
2019-01-21T07:14:57.947Z,-3.36
2019-01-21T07:15:57.953Z,-3.41
2019-01-21T07:16:57.956Z,-3.45
2019-01-21T07:17:57.957Z,-3.43
2019-01-21T07:18:57.969Z,-3.43
2019-01-21T07:19:57.972Z,-3.41
2019-01-21T07:20:57.979Z,-3.42
2019-01-21T07:21:57.988Z,-3.46
2019-01-21T07:22:57.993Z,-3.54
2019-01-21T07:23:57.994Z,-3.45
2019-01-21T07:24:58.005Z,-3.49
2019-01-21T07:25:58.006Z,-3.41
2019-01-21T07:26:58.018Z,-3.42
2019-01-21T07:27:58.027Z,-3.48
2019-01-21T07:28:58.045Z,-3.42
2019-01-21T07:29:58.033Z,-3.42
2019-01-21T07:30:58.036Z,-3.43
2019-01-21T07:31:58.181Z,-3.39
2019-01-21T07:32:58.046Z,-3.42
2019-01-21T07:33:58.055Z,-3.46
2019-01-21T07:34:58.064Z,-3.45
2019-01-21T07:35:58.065Z,-3.54
2019-01-21T07:36:58.100Z,-3.45
2019-01-21T07:37:58.099Z,-3.46
2019-01-21T07:38:58.133Z,-3.43
2019-01-21T07:39:58.091Z,-3.48
2019-01-21T07:40:58.098Z,-3.43
2019-01-21T07:41:58.106Z,-3.45
2019-01-21T07:42:58.107Z,-3.39
2019-01-21T07:43:58.116Z,-3.45
2019-01-21T07:44:58.123Z,-3.54
2019-01-21T07:45:58.128Z,-3.60
2019-01-21T07:46:58.132Z,-3.60
2019-01-21T07:47:58.142Z,-3.56
2019-01-21T07:48:58.145Z,-3.64
2019-01-21T07:49:58.153Z,-3.59
2019-01-21T07:50:58.158Z,-3.60
2019-01-21T07:51:58.165Z,-3.62
2019-01-21T07:52:58.180Z,-3.63
2019-01-21T07:53:58.179Z,-3.62
2019-01-21T07:54:58.182Z,-3.66
2019-01-21T07:55:58.183Z,-3.66
2019-01-21T07:56:58.207Z,-3.67
2019-01-21T07:57:58.209Z,-3.69
2019-01-21T07:58:58.245Z,-3.59
2019-01-21T07:59:58.210Z,-3.60
2019-01-21T08:00:58.213Z,-3.67
2019-01-21T08:01:58.221Z,-3.66
2019-01-21T08:02:58.229Z,-3.71
2019-01-21T08:03:58.231Z,-3.63
2019-01-21T08:04:58.237Z,-3.59
2019-01-21T08:05:58.248Z,-3.64
2019-01-21T08:06:58.711Z,-3.60
2019-01-21T08:07:58.257Z,-3.66
2019-01-21T08:08:58.265Z,-3.57
2019-01-21T08:09:58.274Z,-3.57
2019-01-21T08:10:58.273Z,-3.60
2019-01-21T08:11:58.276Z,-3.62
2019-01-21T08:12:58.294Z,-3.75
2019-01-21T08:13:58.291Z,-3.69
2019-01-21T08:14:58.299Z,-3.60
2019-01-21T08:15:58.305Z,-3.67
2019-01-21T08:16:58.341Z,-3.71
2019-01-21T08:17:58.320Z,-3.62
2019-01-21T08:18:58.334Z,-3.66
2019-01-21T08:19:58.327Z,-3.69
2019-01-21T08:20:58.361Z,-3.66
2019-01-21T08:21:58.337Z,-3.76
2019-01-21T08:22:58.355Z,-3.69
2019-01-21T08:23:58.360Z,-3.71
2019-01-21T08:24:58.372Z,-3.64
2019-01-21T08:25:58.364Z,-3.71
2019-01-21T08:26:58.371Z,-3.60
2019-01-21T08:27:58.373Z,-3.48
2019-01-21T08:29:58.388Z,-3.64
2019-01-21T08:30:58.401Z,-3.67
2019-01-21T08:31:58.416Z,-3.57
2019-01-21T08:32:58.401Z,-3.63
2019-01-21T08:33:58.420Z,-3.60
2019-01-21T08:34:58.414Z,-3.64
2019-01-21T08:35:58.418Z,-3.71
2019-01-21T08:36:58.428Z,-3.60
2019-01-21T08:37:58.432Z,-3.60
2019-01-21T08:38:58.454Z,-3.59
2019-01-21T08:39:58.986Z,-3.62
2019-01-21T08:40:58.814Z,-3.59
2019-01-21T08:41:58.460Z,-3.53
2019-01-21T08:42:58.471Z,-3.57
2019-01-21T08:43:58.507Z,-3.62
2019-01-21T08:44:58.472Z,-3.59
2019-01-21T08:45:58.494Z,-3.57
2019-01-21T08:46:58.484Z,-3.59
2019-01-21T08:47:58.493Z,-3.60
2019-01-21T08:48:58.509Z,-3.56
2019-01-21T08:49:58.504Z,-3.57
2019-01-21T08:50:58.506Z,-3.53
2019-01-21T08:51:58.649Z,-3.56
2019-01-21T08:52:58.517Z,-3.48
2019-01-21T08:53:58.528Z,-3.48
2019-01-21T08:54:58.529Z,-3.48
2019-01-21T08:55:58.540Z,-3.48
2019-01-21T08:56:58.545Z,-3.54
2019-01-21T08:57:58.549Z,-3.48
2019-01-21T08:58:58.553Z,-3.56
2019-01-21T08:59:58.578Z,-3.43
2019-01-21T09:00:58.567Z,-3.46
2019-01-21T09:01:58.574Z,-3.39
2019-01-21T09:02:58.577Z,-3.41
2019-01-21T09:03:58.589Z,-3.33
2019-01-21T09:04:58.596Z,-3.27
2019-01-21T09:05:58.598Z,-3.28
2019-01-21T09:07:00.742Z,-3.33
2019-01-21T09:07:58.607Z,-3.17
2019-01-21T09:08:58.626Z,-3.18
2019-01-21T09:09:58.620Z,-3.12
2019-01-21T09:10:58.859Z,-3.14
2019-01-21T09:11:58.637Z,-2.89
2019-01-21T09:12:58.642Z,-3.03
2019-01-21T09:13:58.892Z,-3.02
2019-01-21T09:14:58.661Z,-2.92
2019-01-21T09:15:58.658Z,-2.96
2019-01-21T09:17:58.675Z,-2.91
2019-01-21T09:18:58.712Z,-2.86
2019-01-21T09:19:58.735Z,-2.86
2019-01-21T09:20:58.691Z,-2.81
2019-01-21T09:21:58.694Z,-2.73
2019-01-21T09:22:58.714Z,-2.73
2019-01-21T09:23:58.712Z,-2.66
2019-01-21T09:24:58.899Z,-2.60
2019-01-21T09:25:58.980Z,-2.58
2019-01-21T09:26:58.875Z,-2.55
2019-01-21T09:27:59.168Z,-2.53
2019-01-21T09:28:58.762Z,-2.45
2019-01-21T09:30:00.935Z,-2.50
2019-01-21T09:30:59.533Z,-2.43
2019-01-21T09:31:58.770Z,-2.40
2019-01-21T09:32:58.765Z,-2.39
2019-01-21T09:33:58.768Z,-2.30
2019-01-21T09:34:58.776Z,-2.34
2019-01-21T09:35:58.782Z,-2.26
2019-01-21T09:36:58.790Z,-2.30
2019-01-21T09:37:58.801Z,-2.20
2019-01-21T09:38:58.803Z,-2.16
2019-01-21T09:39:58.807Z,-2.13
2019-01-21T09:40:58.815Z,-2.09
2019-01-21T09:41:58.846Z,-2.09
2019-01-21T09:42:58.825Z,-2.02
2019-01-21T09:43:58.844Z,-2.06
2019-01-21T09:44:58.847Z,-2.02
2019-01-21T09:45:58.850Z,-2.03
2019-01-21T09:46:58.854Z,-1.95
2019-01-21T09:47:58.865Z,-1.91
2019-01-21T09:48:58.866Z,-1.95
2019-01-21T09:49:58.872Z,-1.90
2019-01-21T09:50:58.891Z,-1.84
2019-01-21T09:51:58.905Z,-2.00
2019-01-21T09:52:58.893Z,-1.77
2019-01-21T09:53:58.898Z,-1.91
2019-01-21T09:54:58.908Z,-1.80
2019-01-21T09:55:58.915Z,-1.73
2019-01-21T09:56:58.920Z,-1.62
2019-01-21T09:57:58.930Z,-1.64
2019-01-21T09:58:58.933Z,-1.58
2019-01-21T09:59:58.941Z,-1.59
2019-01-21T10:00:58.948Z,-1.51
2019-01-21T10:01:58.965Z,-1.51
2019-01-21T10:02:58.962Z,-1.56
2019-01-21T10:03:58.970Z,-1.52
2019-01-21T10:04:59.429Z,-1.38
2019-01-21T10:05:58.987Z,-1.37
2019-01-21T10:06:58.986Z,-1.30
2019-01-21T10:07:58.997Z,-1.33
2019-01-21T10:08:59.002Z,-1.31
2019-01-21T10:09:59.009Z,-1.30
2019-01-21T10:11:03.316Z,-1.27
2019-01-21T10:11:59.035Z,-1.22
2019-01-21T10:12:59.041Z,-1.20
2019-01-21T10:13:59.037Z,-1.13
2019-01-21T10:14:59.044Z,-1.13
2019-01-21T10:15:59.053Z,-1.13
2019-01-21T10:16:59.072Z,-1.13
2019-01-21T10:17:59.802Z,-1.12
2019-01-21T10:18:59.072Z,-1.09
2019-01-21T10:19:59.079Z,-1.01
2019-01-21T10:20:59.089Z,-1.01
2019-01-21T10:21:59.095Z,-1.01
2019-01-21T10:22:59.106Z,-0.86
2019-01-21T10:23:59.124Z,-0.86
2019-01-21T10:24:59.133Z,-0.76
2019-01-21T10:25:59.135Z,-0.73
2019-01-21T10:26:59.131Z,-0.67
2019-01-21T10:27:59.147Z,-0.61
2019-01-21T10:28:59.143Z,-0.65
2019-01-21T10:29:59.158Z,-0.49
2019-01-21T10:30:59.180Z,-0.46
2019-01-21T10:31:59.414Z,-0.47
2019-01-21T10:32:59.174Z,-0.36
2019-01-21T10:33:59.293Z,-0.42
2019-01-21T10:34:59.185Z,-0.39
2019-01-21T10:35:59.194Z,-0.36
2019-01-21T10:36:59.202Z,-0.28
2019-01-21T10:37:59.232Z,-0.47
2019-01-21T10:38:59.215Z,-0.42
2019-01-21T10:39:59.224Z,-0.52
2019-01-21T10:40:59.230Z,-0.47
2019-01-21T10:41:59.238Z,-0.43
2019-01-21T10:42:59.292Z,-0.43
2019-01-21T10:43:59.255Z,-0.46
2019-01-21T10:44:59.254Z,-0.29
2019-01-21T10:45:59.262Z,-0.34
2019-01-21T10:46:59.276Z,-0.34
2019-01-21T10:47:59.280Z,-0.29
2019-01-21T10:48:59.287Z,-0.22
2019-01-21T10:49:59.301Z,-0.21
2019-01-21T10:50:59.310Z,-0.14
2019-01-21T10:51:59.311Z,-0.08
2019-01-21T10:52:59.321Z,-0.05
2019-01-21T10:53:59.330Z,-0.03
2019-01-21T10:54:59.339Z,-0.07
2019-01-21T10:55:59.341Z,0.00
2019-01-21T10:56:59.349Z,0.08
2019-01-21T10:57:59.357Z,0.03
2019-01-21T10:58:59.365Z,0.03
2019-01-21T10:59:59.372Z,0.14
2019-01-21T11:00:59.378Z,0.08
2019-01-21T11:01:59.386Z,0.13
2019-01-21T11:02:59.389Z,0.08
2019-01-21T11:03:59.410Z,0.14
2019-01-21T11:04:59.405Z,0.17
2019-01-21T11:05:59.424Z,0.21
2019-01-21T11:06:59.422Z,0.24
2019-01-21T11:07:59.427Z,0.31
2019-01-21T11:08:59.440Z,0.28
2019-01-21T11:09:59.442Z,0.26
2019-01-21T11:10:59.451Z,0.23
2019-01-21T11:11:59.461Z,0.29
2019-01-21T11:12:59.470Z,0.21
2019-01-21T11:13:59.476Z,0.26
2019-01-21T11:14:59.483Z,0.21
2019-01-21T11:15:59.504Z,0.26
2019-01-21T11:16:59.506Z,0.23
2019-01-21T11:17:59.515Z,0.23
2019-01-21T11:18:59.514Z,0.28
2019-01-21T11:20:03.918Z,0.28
2019-01-21T11:20:59.530Z,0.41
2019-01-21T11:21:59.535Z,0.41
2019-01-21T11:22:59.565Z,0.49
2019-01-21T11:23:59.548Z,0.42
2019-01-21T11:24:59.559Z,0.44
2019-01-21T11:25:59.564Z,0.44
2019-01-21T11:26:59.586Z,0.49
2019-01-21T11:27:59.647Z,0.47
2019-01-21T11:28:59.590Z,0.50
2019-01-21T11:29:59.606Z,0.65
2019-01-21T11:30:59.608Z,0.66
2019-01-21T11:31:59.701Z,0.70
2019-01-21T11:32:59.621Z,0.70
2019-01-21T11:33:59.674Z,0.73
2019-01-21T11:34:59.637Z,0.70
2019-01-21T11:35:59.650Z,0.83
2019-01-21T11:36:59.648Z,0.75
2019-01-21T11:37:59.660Z,0.78
2019-01-21T11:38:59.688Z,0.83
2019-01-21T11:39:59.675Z,0.79
2019-01-21T11:40:59.682Z,0.78
2019-01-21T11:41:59.689Z,0.86
2019-01-21T11:42:59.746Z,0.86
2019-01-21T11:43:59.706Z,0.87
2019-01-21T11:44:59.710Z,0.87
2019-01-21T11:45:59.720Z,0.96
2019-01-21T11:46:59.743Z,0.97
2019-01-21T11:47:59.767Z,0.94
2019-01-21T11:48:59.749Z,0.97
2019-01-21T11:49:59.773Z,1.05
2019-01-21T11:50:59.762Z,0.98
2019-01-21T11:51:59.779Z,1.06
2019-01-21T11:52:59.777Z,1.06
2019-01-21T11:53:59.798Z,1.14
2019-01-21T11:54:59.799Z,1.08
2019-01-21T11:55:59.801Z,1.04
2019-01-21T11:56:59.806Z,1.12
2019-01-21T11:57:59.818Z,1.16
2019-01-21T11:58:59.824Z,1.20
2019-01-21T11:59:59.832Z,1.16
2019-01-21T12:00:59.839Z,1.24
2019-01-21T12:01:59.836Z,1.34
2019-01-21T12:02:59.845Z,1.27
2019-01-21T12:03:59.857Z,1.26
2019-01-21T12:04:59.967Z,1.29
2019-01-21T12:05:59.870Z,1.36
2019-01-21T12:06:59.887Z,1.34
2019-01-21T12:07:59.891Z,1.29
2019-01-21T12:08:59.897Z,1.34
2019-01-21T12:09:59.900Z,1.32
2019-01-21T12:10:59.919Z,1.45
2019-01-21T12:11:59.927Z,1.47
2019-01-21T12:12:59.928Z,1.42
2019-01-21T12:13:59.936Z,1.40
2019-01-21T12:14:59.948Z,1.41
2019-01-21T12:15:59.949Z,1.45
2019-01-21T12:16:59.967Z,1.42
2019-01-21T12:17:59.966Z,1.34
2019-01-21T12:18:59.972Z,1.36
2019-01-21T12:19:59.991Z,1.45
2019-01-21T12:20:59.991Z,1.44
2019-01-21T12:21:59.999Z,1.44
2019-01-21T12:23:00.012Z,1.48
2019-01-21T12:24:00.015Z,1.41
2019-01-21T12:25:00.022Z,1.37
2019-01-21T12:26:00.033Z,1.51
2019-01-21T12:27:00.037Z,1.54
2019-01-21T12:28:00.049Z,1.37
2019-01-21T12:29:00.064Z,1.51
2019-01-21T12:30:00.096Z,1.48
2019-01-21T12:31:00.070Z,1.44
2019-01-21T12:32:00.077Z,1.45
2019-01-21T12:33:00.094Z,1.42
2019-01-21T12:34:00.093Z,1.41
2019-01-21T12:35:00.224Z,1.37
2019-01-21T12:36:00.113Z,1.48
2019-01-21T12:37:00.117Z,1.45
2019-01-21T12:38:00.137Z,1.51
2019-01-21T12:39:00.141Z,1.52
2019-01-21T12:40:00.165Z,1.54
2019-01-21T12:41:00.151Z,1.48
2019-01-21T12:42:00.161Z,1.50
2019-01-21T12:43:00.168Z,1.47
2019-01-21T12:44:00.174Z,1.50
2019-01-21T12:45:00.183Z,1.44
2019-01-21T12:46:00.193Z,1.55
2019-01-21T12:47:00.202Z,1.58
2019-01-21T12:48:00.207Z,1.54
2019-01-21T12:49:00.224Z,1.63
2019-01-21T12:50:00.224Z,1.55
2019-01-21T12:51:00.238Z,1.58
2019-01-21T12:52:00.240Z,1.58
2019-01-21T12:53:00.248Z,1.58
2019-01-21T12:54:00.255Z,1.63
2019-01-21T12:55:00.268Z,1.62
2019-01-21T12:56:00.272Z,1.59
2019-01-21T12:57:00.282Z,1.59
2019-01-21T12:58:00.288Z,1.63
2019-01-21T12:59:00.299Z,1.65
2019-01-21T13:00:00.316Z,1.60
2019-01-21T13:01:00.315Z,1.66